Ceres, Virginia
Current Conditions -  °F | °C
As of 1:55 PM on Sunday 23 Nov 2014 (Local Time) from KMKJ Reporting Station
Light Rain Light Rain  
Wind Chill: 50°   Ceiling: 1300
Heat Index: 50°   Visibility: 10mi
Dew Point: 46°   Wind: 12mph
Humidity: 85%   Direction: 90°E
Pressure: 30.01"   Gusts: 18mph
Location:  37.02°N, 81.34°W
Report Text: KMKJ 231855Z AUTO 09010G16KT 050V140 10SM -RA OVC013 10/08 A3001 RMK AO2 P0002 T01010077
Loading
Personal Weather Stations






























Interactive Weather Map New forecast layout! Learn more

10-Day Weather Forecast

Advertisements
Track Severe Weather on mobile